createdAt,value
2022-07-26T00:02:20.331Z,100696.47
2022-07-26T00:04:46.947Z,100694.50
2022-07-26T00:07:13.467Z,100696.75
2022-07-26T00:09:41.852Z,100700.38
2022-07-26T00:12:11.452Z,100695.63
2022-07-26T00:14:37.864Z,100694.50
2022-07-26T00:17:05.770Z,100698.94
2022-07-26T00:19:32.237Z,100700.59
2022-07-26T00:22:33.866Z,100705.63
2022-07-26T00:25:01.129Z,100705.63
2022-07-26T00:27:27.536Z,100703.66
2022-07-26T00:29:53.918Z,100703.38
2022-07-26T00:32:20.333Z,100708.38
2022-07-26T00:34:46.762Z,100707.28
2022-07-26T00:37:16.017Z,100703.34
2022-07-26T00:39:46.606Z,100703.31
2022-07-26T00:42:14.078Z,100715.88
2022-07-26T00:44:43.220Z,100721.72
2022-07-26T00:47:09.798Z,100718.38
2022-07-26T00:49:36.296Z,100721.44
2022-07-26T00:52:05.179Z,100726.47
2022-07-26T00:54:31.847Z,100727.81
2022-07-26T00:56:58.367Z,100721.69
2022-07-26T00:59:25.075Z,100726.97
2022-07-26T01:01:51.633Z,100724.75
2022-07-26T01:04:18.108Z,100734.47
2022-07-26T01:06:44.782Z,100728.59
2022-07-26T01:09:11.738Z,100737.78
2022-07-26T01:11:38.174Z,100747.81
2022-07-26T01:14:04.852Z,100748.34
2022-07-26T01:16:31.501Z,100745.25
2022-07-26T01:18:58.055Z,100743.84
2022-07-26T01:21:29.325Z,100741.31
2022-07-26T01:23:55.811Z,100737.69
2022-07-26T01:26:22.256Z,100742.41
2022-07-26T01:28:52.429Z,100737.88
2022-07-26T01:31:19.070Z,100732.00
2022-07-26T01:33:45.706Z,100737.28
2022-07-26T01:36:12.702Z,100739.78
2022-07-26T01:38:40.668Z,100740.56
2022-07-26T01:41:07.805Z,100739.44
2022-07-26T01:43:34.824Z,100746.66
2022-07-26T01:46:01.532Z,100748.53
2022-07-26T01:48:28.422Z,100747.97
2022-07-26T01:50:56.738Z,100747.94
2022-07-26T01:53:23.246Z,100756.81
2022-07-26T01:55:49.677Z,100762.94
2022-07-26T01:58:16.158Z,100769.59
2022-07-26T02:00:42.729Z,100768.44
2022-07-26T02:03:09.195Z,100769.53
2022-07-26T02:05:35.699Z,100762.00
2022-07-26T02:08:02.383Z,100773.41
2022-07-26T02:10:47.597Z,100767.28
2022-07-26T02:13:14.455Z,100766.97
2022-07-26T02:15:41.280Z,100772.22
2022-07-26T02:18:07.842Z,100779.16
2022-07-26T02:20:34.301Z,100783.59
2022-07-26T02:23:01.447Z,100779.38
2022-07-26T02:25:28.309Z,100778.81
2022-07-26T02:27:54.930Z,100777.38
2022-07-26T02:30:21.432Z,100781.00
2022-07-26T02:32:47.908Z,100777.38
2022-07-26T02:35:14.752Z,100777.13
2022-07-26T02:37:43.751Z,100783.28
2022-07-26T02:40:15.467Z,100786.88
2022-07-26T02:42:45.037Z,100788.31
2022-07-26T02:45:11.448Z,100782.22
2022-07-26T02:47:48.494Z,100792.25
2022-07-26T02:50:20.044Z,100790.03
2022-07-26T02:52:48.141Z,100788.94
2022-07-26T02:55:16.441Z,100790.63
2022-07-26T02:57:46.595Z,100792.81
2022-07-26T03:00:16.676Z,100797.03
2022-07-26T03:02:43.602Z,100797.63
2022-07-26T03:05:10.428Z,100801.81
2022-07-26T03:07:36.957Z,100801.56
2022-07-26T03:10:04.115Z,100807.44
2022-07-26T03:12:30.807Z,100811.63
2022-07-26T03:14:57.261Z,100811.94
2022-07-26T03:17:23.725Z,100813.69
2022-07-26T03:19:50.141Z,100808.69
2022-07-26T03:22:16.977Z,100817.09
2022-07-26T03:24:43.481Z,100820.44
2022-07-26T03:27:09.949Z,100821.59
2022-07-26T03:29:36.556Z,100821.91
2022-07-26T03:32:03.080Z,100828.03
2022-07-26T03:34:29.522Z,100820.81
2022-07-26T03:36:55.973Z,100826.72
2022-07-26T03:39:22.587Z,100827.88
2022-07-26T03:41:49.136Z,100830.41
2022-07-26T03:44:15.532Z,100826.22
2022-07-26T03:46:42.001Z,100831.25
2022-07-26T03:49:10.985Z,100833.56
2022-07-26T03:51:41.050Z,100829.66
2022-07-26T03:54:07.776Z,100832.75
2022-07-26T03:56:34.380Z,100835.03
2022-07-26T03:59:04.474Z,100833.63
2022-07-26T04:01:31.861Z,100833.09
2022-07-26T04:03:58.643Z,100836.19
2022-07-26T04:06:25.781Z,100840.38
2022-07-26T04:08:53.003Z,100834.56
2022-07-26T04:11:19.694Z,100827.59
2022-07-26T04:13:46.281Z,100826.78
2022-07-26T04:16:13.144Z,100824.28
2022-07-26T04:18:39.668Z,100826.53
2022-07-26T04:21:06.466Z,100827.69
2022-07-26T04:23:32.932Z,100819.31
2022-07-26T04:25:59.399Z,100827.44
2022-07-26T04:28:28.812Z,100826.56
2022-07-26T04:30:57.190Z,100828.28
2022-07-26T04:33:23.889Z,100819.91
2022-07-26T04:35:50.696Z,100826.63
2022-07-26T04:38:17.157Z,100829.13
2022-07-26T04:40:43.939Z,100822.16
2022-07-26T04:43:15.933Z,100833.91
2022-07-26T04:45:43.822Z,100834.75
2022-07-26T04:48:10.319Z,100826.94
2022-07-26T04:50:36.932Z,100835.03
2022-07-26T04:53:03.437Z,100825.56
2022-07-26T04:55:30.550Z,100844.28
2022-07-26T04:57:57.380Z,100829.22
2022-07-26T05:00:25.131Z,100831.75
2022-07-26T05:02:57.203Z,100834.53
2022-07-26T05:05:25.905Z,100833.69
2022-07-26T05:07:55.102Z,100835.09
2022-07-26T05:10:22.871Z,100834.84
2022-07-26T05:12:49.593Z,100840.41
2022-07-26T05:15:16.543Z,100829.53
2022-07-26T05:17:43.792Z,100843.53
2022-07-26T05:20:14.113Z,100830.97
2022-07-26T05:22:41.061Z,100833.50
2022-07-26T05:25:08.420Z,100829.63
2022-07-26T05:27:35.124Z,100831.56
2022-07-26T05:30:02.025Z,100828.78
2022-07-26T05:32:28.488Z,100824.84
2022-07-26T05:34:54.963Z,100827.38
2022-07-26T05:37:21.609Z,100824.03
2022-07-26T05:39:48.020Z,100826.31
2022-07-26T05:42:14.444Z,100820.19
2022-07-26T05:44:42.646Z,100821.28
2022-07-26T05:47:09.484Z,100816.84
2022-07-26T05:49:39.810Z,100819.66
2022-07-26T05:52:07.076Z,100825.28
2022-07-26T05:54:33.584Z,100821.38
2022-07-26T05:57:00.000Z,100823.34
2022-07-26T05:59:26.448Z,100823.34
2022-07-26T06:01:56.261Z,100820.84
2022-07-26T06:04:25.037Z,100823.66
2022-07-26T06:06:54.802Z,100824.78
2022-07-26T06:09:22.466Z,100818.06
2022-07-26T06:11:48.859Z,100826.47
2022-07-26T06:14:15.441Z,100823.69
2022-07-26T06:16:42.076Z,100819.78
2022-07-26T06:19:08.674Z,100819.50
2022-07-26T06:21:35.125Z,100827.63
2022-07-26T06:24:01.616Z,100828.22
2022-07-26T06:26:28.047Z,100836.28
2022-07-26T06:28:54.479Z,100842.75
2022-07-26T06:31:21.068Z,100848.59
2022-07-26T06:33:47.659Z,100840.75
2022-07-26T06:36:14.169Z,100846.34
2022-07-26T06:38:40.695Z,100851.06
2022-07-26T06:41:07.092Z,100849.94
2022-07-26T06:43:33.530Z,100844.34
2022-07-26T06:46:00.024Z,100849.34
2022-07-26T06:48:26.749Z,100855.50
2022-07-26T06:50:53.279Z,100848.72
2022-07-26T06:53:19.698Z,100852.06
2022-07-26T06:55:46.138Z,100852.06
2022-07-26T06:58:12.585Z,100848.94
2022-07-26T07:00:39.212Z,100851.97
2022-07-26T07:03:05.692Z,100857.81
2022-07-26T07:05:32.947Z,100855.81
2022-07-26T07:07:59.407Z,100850.44
2022-07-26T07:10:26.511Z,100846.75
2022-07-26T07:12:52.987Z,100849.50
2022-07-26T07:15:19.460Z,100856.47
2022-07-26T07:17:45.911Z,100852.75
2022-07-26T07:20:13.450Z,100844.25
2022-07-26T07:22:39.903Z,100843.06
2022-07-26T07:25:06.545Z,100840.78
2022-07-26T07:27:33.321Z,100850.84
2022-07-26T07:30:00.075Z,100845.41
2022-07-26T07:32:26.654Z,100849.59
2022-07-26T07:34:55.136Z,100843.34
2022-07-26T07:37:21.591Z,100842.97
2022-07-26T07:39:48.823Z,100848.84
2022-07-26T07:42:17.068Z,100845.50
2022-07-26T07:44:43.661Z,100850.63
2022-07-26T07:47:10.283Z,100847.63
2022-07-26T07:49:36.824Z,100860.91
2022-07-26T07:52:03.681Z,100857.84
2022-07-26T07:54:30.111Z,100849.78
2022-07-26T07:56:56.541Z,100862.53
2022-07-26T07:59:23.758Z,100859.19
2022-07-26T08:01:50.692Z,100859.00
2022-07-26T08:04:17.268Z,100861.31
2022-07-26T08:06:50.238Z,100862.47
2022-07-26T08:09:18.932Z,100854.09
2022-07-26T08:11:45.689Z,100864.19
2022-07-26T08:14:17.738Z,100865.88
2022-07-26T08:16:44.754Z,100860.53
2022-07-26T08:19:11.864Z,100858.25
2022-07-26T08:21:38.562Z,100863.00
2022-07-26T08:24:06.609Z,100856.81
2022-07-26T08:26:33.075Z,100864.00
2022-07-26T08:29:00.429Z,100870.63
2022-07-26T08:31:28.678Z,100869.44
2022-07-26T08:33:55.365Z,100861.47
2022-07-26T08:36:21.778Z,100860.88
2022-07-26T08:38:48.547Z,100856.88
2022-07-26T08:41:18.801Z,100861.06
2022-07-26T08:43:52.296Z,100861.97
2022-07-26T08:46:26.318Z,100865.66
2022-07-26T08:48:54.469Z,100862.25
2022-07-26T08:51:23.652Z,100861.41
2022-07-26T08:53:53.967Z,100862.00
2022-07-26T08:56:20.405Z,100870.09
2022-07-26T08:58:46.823Z,100864.19
2022-07-26T09:01:13.763Z,100862.84
2022-07-26T09:03:42.577Z,100871.63
2022-07-26T09:06:16.671Z,100864.78
2022-07-26T09:08:44.614Z,100869.50
2022-07-26T09:11:26.336Z,100873.28
2022-07-26T09:13:56.066Z,100873.13
2022-07-26T09:16:22.705Z,100882.69
2022-07-26T09:18:49.225Z,100884.06
2022-07-26T09:21:33.606Z,100889.16
2022-07-26T09:24:00.394Z,100889.06
2022-07-26T09:26:28.012Z,100885.34
2022-07-26T09:29:12.247Z,100876.56
2022-07-26T09:31:39.691Z,100890.53
2022-07-26T09:34:07.656Z,100885.16
2022-07-26T09:36:50.277Z,100888.75
2022-07-26T09:39:16.747Z,100885.72
2022-07-26T09:41:43.222Z,100885.38
2022-07-26T09:44:30.031Z,100892.78
2022-07-26T09:46:58.942Z,100900.91
2022-07-26T09:49:30.948Z,100896.72
2022-07-26T09:52:18.277Z,100906.19
2022-07-26T09:54:46.908Z,100899.66
2022-07-26T09:57:16.355Z,100898.66
2022-07-26T09:59:43.312Z,100898.41
2022-07-26T10:02:10.374Z,100897.50
2022-07-26T10:04:36.968Z,100891.78
2022-07-26T10:07:03.942Z,100886.66
2022-07-26T10:09:37.279Z,100889.16
2022-07-26T10:12:08.865Z,100891.50
2022-07-26T10:14:38.278Z,100890.53
2022-07-26T10:17:31.737Z,100898.59
2022-07-26T10:20:04.221Z,100888.66
2022-07-26T10:22:41.790Z,100896.06
2022-07-26T10:25:31.331Z,100872.13
2022-07-26T10:27:58.194Z,100874.97
2022-07-26T10:30:33.915Z,100888.09
2022-07-26T10:33:10.317Z,100877.22
2022-07-26T10:35:44.628Z,100877.19
2022-07-26T10:38:17.993Z,100889.22
2022-07-26T10:41:06.096Z,100884.41
2022-07-26T10:43:42.330Z,100889.28
2022-07-26T10:46:18.679Z,100887.38
2022-07-26T10:48:58.463Z,100889.03
2022-07-26T10:51:34.018Z,100897.59
2022-07-26T10:54:13.375Z,100890.25
2022-07-26T10:56:40.594Z,100905.06
2022-07-26T10:59:07.448Z,100895.00
2022-07-26T11:01:35.851Z,100907.88
2022-07-26T11:04:02.497Z,100911.59
2022-07-26T11:06:30.332Z,100917.41
2022-07-26T11:08:56.825Z,100915.97
2022-07-26T11:11:29.559Z,100924.88
2022-07-26T11:14:09.642Z,100920.72
2022-07-26T11:16:44.575Z,100917.22
2022-07-26T11:19:15.413Z,100931.97
2022-07-26T11:21:42.561Z,100937.19
2022-07-26T11:24:09.715Z,100935.41
2022-07-26T11:26:43.693Z,100941.38
2022-07-26T11:29:10.744Z,100937.78
2022-07-26T11:31:51.406Z,100941.47
2022-07-26T11:34:34.996Z,100935.91
2022-07-26T11:37:04.161Z,100942.66
2022-07-26T11:39:33.202Z,100939.91
2022-07-26T11:42:08.192Z,100938.78
2022-07-26T11:44:35.798Z,100940.44
2022-07-26T11:47:15.902Z,100937.59
2022-07-26T11:50:00.120Z,100929.41
2022-07-26T11:52:31.280Z,100932.44
2022-07-26T11:54:57.786Z,100928.97
2022-07-26T11:57:29.500Z,100931.09
2022-07-26T11:59:56.028Z,100925.91
2022-07-26T12:02:22.873Z,100916.19
2022-07-26T12:04:49.933Z,100923.00
2022-07-26T12:07:20.110Z,100911.94
2022-07-26T12:09:47.873Z,100903.50
2022-07-26T12:12:25.162Z,100900.81
2022-07-26T12:15:00.982Z,100886.53
2022-07-26T12:17:35.239Z,100888.44
2022-07-26T12:20:17.855Z,100893.69
2022-07-26T12:22:56.061Z,100872.41
2022-07-26T12:25:27.245Z,100873.47
2022-07-26T12:27:53.955Z,100862.81
2022-07-26T12:30:20.971Z,100858.97
2022-07-26T12:32:51.478Z,100852.28
2022-07-26T12:35:27.829Z,100855.94
2022-07-26T12:37:54.364Z,100850.50
2022-07-26T12:40:28.919Z,100851.22
2022-07-26T12:43:01.040Z,100844.72
2022-07-26T12:45:31.457Z,100845.84
2022-07-26T12:47:59.897Z,100835.28
2022-07-26T12:50:27.943Z,100851.84
2022-07-26T12:53:05.982Z,100840.50
2022-07-26T12:55:33.025Z,100842.53
2022-07-26T12:57:59.965Z,100853.19
2022-07-26T13:00:28.601Z,100837.97
2022-07-26T13:02:56.293Z,100856.03
2022-07-26T13:05:22.994Z,100860.78
2022-07-26T13:07:51.491Z,100842.00
2022-07-26T13:10:34.989Z,100869.72
2022-07-26T13:13:02.252Z,100873.16
2022-07-26T13:15:36.839Z,100874.97
2022-07-26T13:18:06.728Z,100876.00
2022-07-26T13:20:33.181Z,100867.03
2022-07-26T13:22:59.571Z,100871.97
2022-07-26T13:25:26.090Z,100887.44
2022-07-26T13:27:58.206Z,100884.50
2022-07-26T13:30:24.699Z,100881.56
2022-07-26T13:32:51.579Z,100877.69
2022-07-26T13:35:18.092Z,100874.84
2022-07-26T13:37:44.475Z,100881.81
2022-07-26T13:40:11.425Z,100887.22
2022-07-26T13:42:38.156Z,100888.81
2022-07-26T13:45:06.592Z,100873.66
2022-07-26T13:47:32.990Z,100873.03
2022-07-26T13:49:59.453Z,100878.16
2022-07-26T13:52:25.894Z,100864.25
2022-07-26T13:54:53.045Z,100873.66
2022-07-26T13:57:19.451Z,100868.22
2022-07-26T13:59:45.884Z,100870.91
2022-07-26T14:02:12.426Z,100859.22
2022-07-26T14:04:38.979Z,100854.09
2022-07-26T14:07:05.409Z,100854.06
2022-07-26T14:09:32.677Z,100859.31
2022-07-26T14:11:59.188Z,100839.81
2022-07-26T14:14:25.621Z,100832.19
2022-07-26T14:16:52.032Z,100833.56
2022-07-26T14:19:18.576Z,100833.72
2022-07-26T14:21:47.488Z,100835.03
2022-07-26T14:24:26.400Z,100831.38
2022-07-26T14:26:58.294Z,100834.06
2022-07-26T14:29:25.889Z,100830.94
2022-07-26T14:31:52.433Z,100836.84
2022-07-26T14:34:18.932Z,100833.59
2022-07-26T14:36:45.440Z,100827.97
2022-07-26T14:39:11.905Z,100830.69
2022-07-26T14:41:38.369Z,100831.03
2022-07-26T14:44:05.036Z,100823.13
2022-07-26T14:46:31.541Z,100833.22
2022-07-26T14:48:58.130Z,100821.50
2022-07-26T14:51:24.686Z,100835.22
2022-07-26T14:53:51.081Z,100828.06
2022-07-26T14:56:17.589Z,100840.69
2022-07-26T14:58:44.014Z,100836.00
2022-07-26T15:01:11.121Z,100832.56
2022-07-26T15:03:37.583Z,100837.00
2022-07-26T15:06:04.175Z,100832.00
2022-07-26T15:08:30.690Z,100832.34
2022-07-26T15:10:57.487Z,100831.19
2022-07-26T15:13:24.056Z,100833.31
2022-07-26T15:15:50.673Z,100839.47
2022-07-26T15:18:17.209Z,100834.44
2022-07-26T15:20:43.706Z,100830.25
2022-07-26T15:23:12.047Z,100828.72
2022-07-26T15:25:38.614Z,100819.50
2022-07-26T15:28:05.188Z,100826.13
2022-07-26T15:30:32.722Z,100819.63
2022-07-26T15:33:01.835Z,100821.16
2022-07-26T15:35:29.927Z,100821.41
2022-07-26T15:37:56.938Z,100813.53
2022-07-26T15:40:23.438Z,100814.38
2022-07-26T15:42:52.200Z,100798.88
2022-07-26T15:45:20.216Z,100793.28
2022-07-26T15:48:01.319Z,100796.16
2022-07-26T15:50:34.951Z,100798.03
2022-07-26T15:53:01.416Z,100795.88
2022-07-26T15:55:28.127Z,100784.31
2022-07-26T15:57:54.694Z,100792.41
2022-07-26T16:00:21.393Z,100798.19
2022-07-26T16:02:47.943Z,100807.22
2022-07-26T16:05:14.836Z,100811.69
2022-07-26T16:07:41.863Z,100803.84
2022-07-26T16:10:10.515Z,100802.47
2022-07-26T16:12:36.985Z,100810.84
2022-07-26T16:15:04.864Z,100807.72
2022-07-26T16:17:31.539Z,100834.50
2022-07-26T16:19:58.010Z,100833.19
2022-07-26T16:22:24.571Z,100843.72
2022-07-26T16:24:51.160Z,100844.97
2022-07-26T16:27:17.604Z,100856.19
2022-07-26T16:29:44.704Z,100851.28
2022-07-26T16:32:13.288Z,100855.88
2022-07-26T16:34:39.806Z,100854.63
2022-07-26T16:37:06.362Z,100862.16
2022-07-26T16:39:32.747Z,100863.13
2022-07-26T16:42:04.569Z,100856.94
2022-07-26T16:44:33.191Z,100865.25
2022-07-26T16:46:59.749Z,100866.22
2022-07-26T16:49:26.299Z,100861.72
2022-07-26T16:51:52.810Z,100869.88
2022-07-26T16:54:19.256Z,100859.13
2022-07-26T16:56:45.782Z,100857.34
2022-07-26T16:59:12.540Z,100857.28
2022-07-26T17:01:39.234Z,100857.78
2022-07-26T17:04:05.931Z,100865.09
2022-07-26T17:06:32.405Z,100860.91
2022-07-26T17:08:58.792Z,100855.34
2022-07-26T17:11:25.245Z,100851.91
2022-07-26T17:13:53.383Z,100847.50
2022-07-26T17:16:24.207Z,100865.69
2022-07-26T17:18:51.628Z,100868.28
2022-07-26T17:21:18.154Z,100871.81
2022-07-26T17:23:44.594Z,100873.59
2022-07-26T17:26:11.138Z,100880.56
2022-07-26T17:28:37.557Z,100880.69
2022-07-26T17:31:03.990Z,100882.94
2022-07-26T17:33:30.431Z,100891.19
2022-07-26T17:36:02.133Z,100900.25
2022-07-26T17:38:31.057Z,100899.72
2022-07-26T17:40:57.507Z,100891.84
2022-07-26T17:43:25.195Z,100896.22
2022-07-26T17:46:03.558Z,100890.97
2022-07-26T17:48:30.103Z,100887.66
2022-07-26T17:50:56.560Z,100892.72
2022-07-26T17:53:34.740Z,100883.22
2022-07-26T17:56:02.102Z,100888.41
2022-07-26T17:58:28.537Z,100910.72
2022-07-26T18:00:55.102Z,100904.34
2022-07-26T18:03:23.075Z,100906.69
2022-07-26T18:05:50.608Z,100915.22
2022-07-26T18:08:17.456Z,100912.47
2022-07-26T18:10:48.949Z,100913.69
2022-07-26T18:13:17.767Z,100905.88
2022-07-26T18:15:44.300Z,100911.66
2022-07-26T18:18:11.022Z,100912.84
2022-07-26T18:20:37.613Z,100916.03
2022-07-26T18:23:04.077Z,100923.78
2022-07-26T18:25:30.530Z,100919.38
2022-07-26T18:27:57.022Z,100912.94
2022-07-26T18:30:23.475Z,100914.41
2022-07-26T18:32:49.989Z,100916.72
2022-07-26T18:35:16.793Z,100921.88
2022-07-26T18:37:43.271Z,100916.31
2022-07-26T18:40:09.973Z,100915.19
2022-07-26T18:42:36.742Z,100920.88
2022-07-26T18:45:04.701Z,100926.25
2022-07-26T18:47:31.159Z,100918.72
2022-07-26T18:49:57.665Z,100922.94
2022-07-26T18:52:32.132Z,100926.66
2022-07-26T18:55:01.266Z,100928.38
2022-07-26T18:57:27.753Z,100930.09
2022-07-26T18:59:54.187Z,100926.22
2022-07-26T19:02:20.637Z,100934.09
2022-07-26T19:04:47.051Z,100926.56
2022-07-26T19:07:13.506Z,100934.75
2022-07-26T19:09:39.940Z,100940.13
2022-07-26T19:12:06.685Z,100934.25
2022-07-26T19:14:33.192Z,100936.25
2022-07-26T19:16:59.653Z,100948.91
2022-07-26T19:19:26.065Z,100957.94
2022-07-26T19:21:52.510Z,100953.13
2022-07-26T19:24:18.938Z,100964.09
2022-07-26T19:26:45.499Z,100970.31
2022-07-26T19:29:12.357Z,100963.03
2022-07-26T19:31:40.639Z,100966.97
2022-07-26T19:34:07.236Z,100971.50
2022-07-26T19:36:33.872Z,100981.00
2022-07-26T19:39:01.226Z,100977.66
2022-07-26T19:41:27.903Z,100979.91
2022-07-26T19:43:54.417Z,100990.03
2022-07-26T19:46:20.947Z,100987.81
2022-07-26T19:48:47.484Z,100988.69
2022-07-26T19:51:14.021Z,100993.22
2022-07-26T19:53:40.482Z,100987.03
2022-07-26T19:56:07.870Z,100996.03
2022-07-26T19:58:34.443Z,100992.66
2022-07-26T20:01:01.076Z,100995.22
2022-07-26T20:03:27.603Z,101009.00
2022-07-26T20:05:55.623Z,100998.66
2022-07-26T20:08:22.458Z,100998.09
2022-07-26T20:10:48.880Z,101002.59
2022-07-26T20:13:15.340Z,101002.91
2022-07-26T20:15:42.381Z,101002.06
2022-07-26T20:18:10.194Z,101019.47
2022-07-26T20:20:36.921Z,101008.00
2022-07-26T20:23:05.919Z,101010.81
2022-07-26T20:25:32.737Z,101011.69
2022-07-26T20:28:00.100Z,101015.63
2022-07-26T20:30:26.564Z,101010.81
2022-07-26T20:32:53.123Z,101010.88
2022-07-26T20:35:19.675Z,101016.22
2022-07-26T20:37:46.109Z,101021.81
2022-07-26T20:40:13.392Z,101013.97
2022-07-26T20:42:44.464Z,101020.16
2022-07-26T20:45:12.877Z,101017.94
2022-07-26T20:47:43.043Z,101031.38
2022-07-26T20:50:11.061Z,101030.81
2022-07-26T20:52:38.453Z,101031.38
2022-07-26T20:55:05.588Z,101028.03
2022-07-26T20:57:32.050Z,101042.59
2022-07-26T20:59:58.472Z,101033.06
2022-07-26T21:02:25.163Z,101037.56
2022-07-26T21:04:51.717Z,101034.22
2022-07-26T21:07:18.244Z,101032.25
2022-07-26T21:09:44.965Z,101039.25
2022-07-26T21:12:11.448Z,101056.06
2022-07-26T21:14:37.860Z,101048.75
2022-07-26T21:17:09.329Z,101055.78
2022-07-26T21:19:37.917Z,101055.78
2022-07-26T21:22:04.329Z,101053.78
2022-07-26T21:24:30.769Z,101056.56
2022-07-26T21:26:57.261Z,101048.19
2022-07-26T21:29:23.725Z,101052.91
2022-07-26T21:31:50.160Z,101056.56
2022-07-26T21:34:16.690Z,101067.19
2022-07-26T21:36:43.208Z,101064.94
2022-07-26T21:39:10.138Z,101072.22
2022-07-26T21:41:36.911Z,101061.59
2022-07-26T21:44:04.244Z,101056.25
2022-07-26T21:46:31.042Z,101059.88
2022-07-26T21:48:57.898Z,101059.28
2022-07-26T21:51:24.324Z,101062.66
2022-07-26T21:53:50.750Z,101060.16
2022-07-26T21:56:17.360Z,101067.69
2022-07-26T21:58:43.805Z,101066.00
2022-07-26T22:01:12.514Z,101074.41
2022-07-26T22:03:40.512Z,101067.69
2022-07-26T22:06:08.130Z,101069.34
2022-07-26T22:08:35.693Z,101082.75
2022-07-26T22:11:02.590Z,101081.09
2022-07-26T22:13:28.995Z,101079.97
2022-07-26T22:15:55.428Z,101081.63
2022-07-26T22:18:21.937Z,101082.72
2022-07-26T22:20:49.691Z,101083.25
2022-07-26T22:23:17.428Z,101082.69
2022-07-26T22:25:44.167Z,101086.59
2022-07-26T22:28:11.961Z,101087.13
2022-07-26T22:30:44.141Z,101097.47
2022-07-26T22:33:11.776Z,101089.06
2022-07-26T22:35:38.707Z,101083.78
2022-07-26T22:38:07.746Z,101085.72
2022-07-26T22:40:35.233Z,101082.63
2022-07-26T22:43:02.280Z,101086.06
2022-07-26T22:45:30.582Z,101084.91
2022-07-26T22:47:57.737Z,101086.59
2022-07-26T22:50:25.103Z,101079.31
2022-07-26T22:52:51.977Z,101088.56
2022-07-26T22:55:18.511Z,101088.28
2022-07-26T22:57:45.553Z,101089.13
2022-07-26T23:00:17.084Z,101082.69
2022-07-26T23:02:44.003Z,101086.06
2022-07-26T23:05:11.544Z,101079.91
2022-07-26T23:07:38.920Z,101077.94
2022-07-26T23:10:09.076Z,101079.91
2022-07-26T23:12:36.372Z,101077.66
2022-07-26T23:15:05.075Z,101089.38
2022-07-26T23:17:31.788Z,101085.97
2022-07-26T23:19:58.461Z,101092.97
2022-07-26T23:22:24.964Z,101084.59
2022-07-26T23:24:51.372Z,101091.28
2022-07-26T23:27:20.168Z,101096.56
2022-07-26T23:29:48.339Z,101092.38
2022-07-26T23:32:16.032Z,101100.19
2022-07-26T23:34:42.905Z,101094.03
2022-07-26T23:37:10.028Z,101095.97
2022-07-26T23:39:36.971Z,101099.88
2022-07-26T23:42:03.470Z,101092.09
2022-07-26T23:44:30.995Z,101097.38
2022-07-26T23:46:58.541Z,101096.81
2022-07-26T23:49:25.212Z,101093.44
2022-07-26T23:51:52.014Z,101097.38
2022-07-26T23:54:18.535Z,101096.53
2022-07-26T23:56:45.594Z,101093.69
2022-07-26T23:59:13.289Z,101094.53
